Terminal Aerodrome Forecast
Issued by NWS

Home | Current Version | Previous Version | Text Only | Print | Product List | Glossary On
Versions: 1 2 3 4 5 6 7 8 9 10 11 12 13 14 15 16 17 18 19 20 21 22 23 24 25 26 27 28 29
000
FTAK31 PAFA 271720
TAFAOM
TAF
PAOM 271720Z 2718/2818 09022G28KT P6SM OVC015
     FM280600 11030KT 1/2SM SN BLSN OVC005
     FM281600 18020KT P6SM -SHSN SCT005 BKN012 OVC025=

USA.gov is the U.S. government's official web portal to all federal, state and local government web resources and services.